Time,TemperatureF,DewpointF,PressureIn,WindDirection,WindDirectionDegrees,WindSpeedMPH,WindSpeedGustMPH,Humidity,HourlyPrecipIn,Conditions,Clouds,dailyrainin,SoftwareType,DateUTC
2013-02-08 00:00:00,43.3,42.0,29.87,NNW,335,1.0,7.0,95,0.00,,---,0.00,VWS V14.01,2013-02-08 05:00:00,
2013-02-08 00:15:00,42.9,41.6,29.87,NW,326,8.0,9.0,95,0.00,,---,0.00,VWS V14.01,2013-02-08 05:15:00,
2013-02-08 00:30:00,42.8,41.5,29.88,NNW,328,2.0,8.0,95,0.00,,---,0.00,VWS V14.01,2013-02-08 05:30:00,
2013-02-08 00:45:00,42.7,41.4,29.88,NNW,338,3.0,8.0,95,0.00,,---,0.00,VWS V14.01,2013-02-08 05:45:00,
2013-02-08 01:00:00,42.7,41.4,29.86,North,349,6.0,9.0,95,0.00,,---,0.00,VWS V14.01,2013-02-08 06:00:00,
2013-02-08 01:15:00,42.8,41.5,29.85,North,356,2.0,9.0,95,0.00,,---,0.00,VWS V14.01,2013-02-08 06:15:00,
2013-02-08 01:30:00,42.7,41.4,29.85,NNE,12,1.0,8.0,95,0.00,,---,0.00,VWS V14.01,2013-02-08 06:30:00,
2013-02-08 01:45:00,42.8,41.5,29.84,NW,325,3.0,11.0,95,0.00,,---,0.00,VWS V14.01,2013-02-08 06:45:00,
2013-02-08 02:00:00,42.9,41.6,29.85,NNE,23,2.0,6.0,95,0.00,,---,0.00,VWS V14.01,2013-02-08 07:00:00,
2013-02-08 02:15:00,43.1,41.8,29.86,NNW,347,3.0,5.0,95,0.00,,---,0.00,VWS V14.01,2013-02-08 07:15:00,
2013-02-08 02:30:00,43.4,42.1,29.88,NNW,333,0.0,4.0,95,0.00,,---,0.00,VWS V14.01,2013-02-08 07:30:00,
2013-02-08 02:45:00,43.6,42.3,29.89,NW,311,0.0,5.0,95,0.00,,---,0.00,VWS V14.01,2013-02-08 07:45:00,
2013-02-08 03:00:00,43.6,42.3,29.89,NNW,346,1.0,3.0,95,0.00,,---,0.00,VWS V14.01,2013-02-08 08:00:00,
2013-02-08 03:15:00,43.6,42.3,29.88,NNW,331,1.0,2.0,95,0.00,,---,0.00,VWS V14.01,2013-02-08 08:15:00,
2013-02-08 03:30:00,43.5,42.4,29.88,NW,319,2.0,5.0,96,0.00,,---,0.00,VWS V14.01,2013-02-08 08:30:00,
2013-02-08 03:45:00,43.5,42.4,29.88,NNW,337,1.0,4.0,96,0.00,,---,0.00,VWS V14.01,2013-02-08 08:45:00,
2013-02-08 04:00:00,43.5,42.4,29.88,North,352,0.0,3.0,96,0.00,,---,0.00,VWS V14.01,2013-02-08 09:00:00,
2013-02-08 04:15:00,43.3,42.2,29.86,NNW,346,0.0,5.0,96,0.00,,---,0.00,VWS V14.01,2013-02-08 09:15:00,
2013-02-08 04:30:00,43.0,41.9,29.88,WNW,293,1.0,4.0,96,0.00,,---,0.00,VWS V14.01,2013-02-08 09:30:00,
2013-02-08 04:45:00,42.8,41.7,29.88,NW,314,1.0,5.0,96,0.00,,---,0.00,VWS V14.01,2013-02-08 09:45:00,
2013-02-08 05:00:00,42.9,41.8,29.89,North,349,0.0,4.0,96,0.00,,---,0.00,VWS V14.01,2013-02-08 10:00:00,
2013-02-08 05:15:00,42.9,41.8,29.88,NW,323,1.0,5.0,96,0.00,,---,0.00,VWS V14.01,2013-02-08 10:15:00,
2013-02-08 05:30:00,42.8,41.7,29.88,SW,228,1.0,3.0,96,0.00,,---,0.00,VWS V14.01,2013-02-08 10:30:00,
2013-02-08 05:45:00,42.8,41.7,29.89,WNW,285,1.0,3.0,96,0.00,,---,0.00,VWS V14.01,2013-02-08 10:45:00,
2013-02-08 06:00:00,42.7,41.6,29.90,NW,311,4.0,5.0,96,0.00,,---,0.00,VWS V14.01,2013-02-08 11:00:00,
2013-02-08 06:15:00,42.7,41.6,29.91,WNW,294,2.0,5.0,96,0.00,,---,0.00,VWS V14.01,2013-02-08 11:15:00,
2013-02-08 06:30:00,42.7,41.4,29.91,WNW,297,1.0,3.0,95,0.00,,---,0.00,VWS V14.01,2013-02-08 11:30:00,
2013-02-08 06:45:00,42.6,41.3,29.92,NNW,335,1.0,2.0,95,0.00,,---,0.00,VWS V14.01,2013-02-08 11:45:00,
2013-02-08 07:00:00,42.6,41.3,29.93,NW,319,0.0,5.0,95,0.00,,---,0.00,VWS V14.01,2013-02-08 12:00:00,
2013-02-08 07:15:00,42.6,41.3,29.93,West,277,1.0,4.0,95,0.00,,---,0.00,VWS V14.01,2013-02-08 12:15:00,
2013-02-08 07:30:00,42.5,41.2,29.92,NNW,329,0.0,2.0,95,0.00,,---,0.00,VWS V14.01,2013-02-08 12:30:00,
2013-02-08 07:45:00,42.6,41.3,29.93,NW,313,1.0,2.0,95,0.00,,---,0.00,VWS V14.01,2013-02-08 12:45:00,
2013-02-08 08:00:00,42.6,41.3,29.94,North,355,1.0,4.0,95,0.00,,---,0.00,VWS V14.01,2013-02-08 13:00:00,
2013-02-08 08:15:00,42.7,41.1,29.95,NW,314,2.0,7.0,94,0.00,,---,0.00,VWS V14.01,2013-02-08 13:15:00,
2013-02-08 08:30:00,42.8,41.2,29.96,NW,311,1.0,5.0,94,0.00,,---,0.00,VWS V14.01,2013-02-08 13:30:00,
2013-02-08 08:45:00,42.9,41.3,29.96,NW,325,2.0,4.0,94,0.00,,---,0.00,VWS V14.01,2013-02-08 13:45:00,
2013-02-08 09:00:00,43.2,41.6,29.96,NNW,337,4.0,7.0,94,0.00,,---,0.00,VWS V14.01,2013-02-08 14:00:00,
2013-02-08 09:15:00,43.4,41.5,29.97,WNW,291,0.0,4.0,93,0.00,,---,0.00,VWS V14.01,2013-02-08 14:15:00,
2013-02-08 09:30:00,43.6,41.4,29.97,NW,322,4.0,5.0,92,0.00,,---,0.00,VWS V14.01,2013-02-08 14:30:00,
2013-02-08 09:45:00,43.9,41.7,29.98,NW,311,3.0,4.0,92,0.00,,---,0.00,VWS V14.01,2013-02-08 14:45:00,
2013-02-08 10:00:00,44.1,41.9,29.97,NW,325,1.0,4.0,92,0.00,,---,0.00,VWS V14.01,2013-02-08 15:00:00,
2013-02-08 10:15:00,44.5,42.3,29.96,NW,304,2.0,5.0,92,0.00,,---,0.00,VWS V14.01,2013-02-08 15:15:00,
2013-02-08 10:30:00,44.9,42.4,29.97,NW,316,2.0,4.0,91,0.00,,---,0.00,VWS V14.01,2013-02-08 15:30:00,
2013-02-08 10:45:00,45.5,43.0,29.97,NW,312,1.0,4.0,91,0.00,,---,0.00,VWS V14.01,2013-02-08 15:45:00,
2013-02-08 11:00:00,46.1,43.3,29.97,NW,316,2.0,5.0,90,0.00,,---,0.00,VWS V14.01,2013-02-08 16:00:00,
2013-02-08 11:15:00,46.7,43.9,29.97,WNW,302,1.0,4.0,90,0.00,,---,0.00,VWS V14.01,2013-02-08 16:15:00,
2013-02-08 11:30:00,47.3,44.2,29.98,NNW,331,0.0,6.0,89,0.00,,---,0.00,VWS V14.01,2013-02-08 16:30:00,
2013-02-08 11:45:00,48.0,44.3,29.96,WSW,248,4.0,5.0,87,0.00,,---,0.00,VWS V14.01,2013-02-08 16:45:00,
2013-02-08 12:00:00,49.3,45.0,29.96,West,261,0.0,6.0,85,0.00,,---,0.00,VWS V14.01,2013-02-08 17:00:00,
2013-02-08 12:15:00,51.2,46.2,29.95,NE,56,0.0,4.0,83,0.00,,---,0.00,VWS V14.01,2013-02-08 17:15:00,
2013-02-08 12:30:00,52.4,46.8,29.94,South,172,2.0,5.0,81,0.00,,---,0.00,VWS V14.01,2013-02-08 17:30:00,
2013-02-08 12:45:00,53.7,47.3,29.94,WNW,284,1.0,7.0,79,0.00,,---,0.00,VWS V14.01,2013-02-08 17:45:00,
2013-02-08 13:00:00,54.9,47.8,29.93,SSW,198,2.0,7.0,77,0.00,,---,0.00,VWS V14.01,2013-02-08 18:00:00,
2013-02-08 13:15:00,55.9,48.1,29.93,South,184,3.0,11.0,75,0.00,,---,0.00,VWS V14.01,2013-02-08 18:15:00,
2013-02-08 13:30:00,57.0,48.4,29.93,WNW,297,2.0,9.0,73,0.00,,---,0.00,VWS V14.01,2013-02-08 18:30:00,
2013-02-08 13:45:00,58.3,49.0,29.92,South,176,3.0,8.0,71,0.00,,---,0.00,VWS V14.01,2013-02-08 18:45:00,
2013-02-08 14:00:00,58.9,49.2,29.92,WSW,252,4.0,10.0,70,0.00,,---,0.00,VWS V14.01,2013-02-08 19:00:00,
2013-02-08 14:15:00,58.3,48.6,29.92,NW,312,3.0,12.0,70,0.00,,---,0.00,VWS V14.01,2013-02-08 19:15:00,
2013-02-08 14:30:00,57.7,49.1,29.92,West,264,0.0,10.0,73,0.00,,---,0.00,VWS V14.01,2013-02-08 19:30:00,
2013-02-08 14:45:00,58.4,49.0,29.91,SW,231,2.0,8.0,71,0.00,,---,0.00,VWS V14.01,2013-02-08 19:45:00,
2013-02-08 15:00:00,58.9,49.5,29.91,NW,305,3.0,8.0,71,0.00,,---,0.00,VWS V14.01,2013-02-08 20:00:00,
2013-02-08 15:15:00,59.1,49.7,29.91,NNW,333,4.0,9.0,71,0.00,,---,0.00,VWS V14.01,2013-02-08 20:15:00,
2013-02-08 15:30:00,59.4,50.0,29.90,WNW,285,5.0,8.0,71,0.00,,---,0.00,VWS V14.01,2013-02-08 20:30:00,
2013-02-08 15:45:00,60.1,49.9,29.90,SSE,155,1.0,8.0,69,0.00,,---,0.00,VWS V14.01,2013-02-08 20:45:00,
2013-02-08 16:00:00,60.5,49.9,29.90,NW,322,4.0,9.0,68,0.00,,---,0.00,VWS V14.01,2013-02-08 21:00:00,
2013-02-08 16:15:00,60.2,50.0,29.90,NW,305,4.0,9.0,69,0.00,,---,0.00,VWS V14.01,2013-02-08 21:15:00,
2013-02-08 16:30:00,59.7,49.9,29.91,West,280,3.0,9.0,70,0.00,,---,0.00,VWS V14.01,2013-02-08 21:30:00,
2013-02-08 16:45:00,58.8,49.8,29.91,WNW,299,3.0,5.0,72,0.00,,---,0.00,VWS V14.01,2013-02-08 21:45:00,
2013-02-08 17:00:00,58.7,50.1,29.92,WNW,300,1.0,8.0,73,0.00,,---,0.00,VWS V14.01,2013-02-08 22:00:00,
2013-02-08 17:15:00,59.0,50.4,29.92,NW,316,3.0,5.0,73,0.00,,---,0.00,VWS V14.01,2013-02-08 22:15:00,
2013-02-08 17:30:00,58.5,49.9,29.93,WSW,249,2.0,7.0,73,0.00,,---,0.00,VWS V14.01,2013-02-08 22:30:00,
2013-02-08 17:45:00,57.7,49.5,29.93,NW,305,1.0,8.0,74,0.00,,---,0.00,VWS V14.01,2013-02-08 22:45:00,
2013-02-08 18:00:00,56.9,49.4,29.94,NW,312,0.0,5.0,76,0.00,,---,0.00,VWS V14.01,2013-02-08 23:00:00,
2013-02-08 18:15:00,56.1,49.3,29.94,WNW,297,0.0,6.0,78,0.00,,---,0.00,VWS V14.01,2013-02-08 23:15:00,
2013-02-08 18:30:00,55.4,49.0,29.95,West,273,0.0,4.0,79,0.00,,---,0.00,VWS V14.01,2013-02-08 23:30:00,
2013-02-08 18:45:00,54.6,48.6,29.95,West,261,0.0,3.0,80,0.00,,---,0.00,VWS V14.01,2013-02-08 23:45:00,
2013-02-08 19:00:00,53.9,48.5,29.96,WNW,291,1.0,4.0,82,0.00,,---,0.00,VWS V14.01,2013-02-09 00:00:00,
2013-02-08 19:15:00,53.4,48.4,29.96,West,266,0.0,2.0,83,0.00,,---,0.00,VWS V14.01,2013-02-09 00:15:00,
2013-02-08 19:30:00,52.9,48.2,29.97,WNW,299,1.0,3.0,84,0.00,,---,0.00,VWS V14.01,2013-02-09 00:30:00,
2013-02-08 19:45:00,52.3,48.2,29.97,NW,308,0.0,2.0,86,0.00,,---,0.00,VWS V14.01,2013-02-09 00:45:00,
2013-02-08 20:00:00,51.9,48.2,29.98,WNW,294,1.0,2.0,87,0.00,,---,0.00,VWS V14.01,2013-02-09 01:00:00,
2013-02-08 20:15:00,51.8,48.1,29.99,WNW,294,1.0,4.0,87,0.00,,---,0.00,VWS V14.01,2013-02-09 01:15:00,
2013-02-08 20:30:00,51.4,48.0,29.99,NW,311,1.0,3.0,88,0.00,,---,0.00,VWS V14.01,2013-02-09 01:30:00,
2013-02-08 20:45:00,50.8,47.7,30.00,WNW,291,1.0,2.0,89,0.00,,---,0.00,VWS V14.01,2013-02-09 01:45:00,
2013-02-08 21:00:00,50.3,47.5,30.01,WSW,248,1.0,4.0,90,0.00,,---,0.00,VWS V14.01,2013-02-09 02:00:00,
2013-02-08 21:15:00,49.8,47.3,30.01,NW,316,1.0,2.0,91,0.00,,---,0.00,VWS V14.01,2013-02-09 02:15:00,
2013-02-08 21:30:00,49.2,46.7,30.02,NW,319,0.0,3.0,91,0.00,,---,0.00,VWS V14.01,2013-02-09 02:30:00,
2013-02-08 21:45:00,48.8,46.6,30.02,NW,304,1.0,2.0,92,0.00,,---,0.00,VWS V14.01,2013-02-09 02:45:00,
2013-02-08 22:00:00,48.2,46.3,30.03,NW,305,0.0,1.0,93,0.00,,---,0.00,VWS V14.01,2013-02-09 03:00:00,
2013-02-08 22:15:00,47.8,45.9,30.03,NNE,13,1.0,2.0,93,0.00,,---,0.00,VWS V14.01,2013-02-09 03:15:00,
2013-02-08 22:30:00,47.3,45.4,30.04,NW,326,1.0,1.0,93,0.00,,---,0.00,VWS V14.01,2013-02-09 03:30:00,
2013-02-08 22:45:00,47.1,45.2,30.05,ESE,107,0.0,2.0,93,0.00,,---,0.00,VWS V14.01,2013-02-09 03:45:00,
2013-02-08 23:00:00,46.3,44.7,30.05,NNW,340,1.0,2.0,94,0.00,,---,0.00,VWS V14.01,2013-02-09 04:00:00,
2013-02-08 23:15:00,45.4,43.5,30.06,WNW,291,1.0,1.0,93,0.00,,---,0.00,VWS V14.01,2013-02-09 04:15:00,
2013-02-08 23:30:00,45.3,43.1,30.08,WNW,300,0.0,3.0,92,0.00,,---,0.00,VWS V14.01,2013-02-09 04:30:00,
2013-02-08 23:45:00,44.9,42.4,30.08,WNW,287,0.0,2.0,91,0.00,,---,0.00,VWS V14.01,2013-02-09 04:45:00,